sensor_id;sensor_type;location;lat;lon;timestamp;P1;durP1;ratioP1;P2;durP2;ratioP2
49860;SDS011;35761;48.826;9.238;2023-03-01T00:01:48;20.98;;;11.00;;
49860;SDS011;35761;48.826;9.238;2023-03-01T00:04:17;21.08;;;11.93;;
49860;SDS011;35761;48.826;9.238;2023-03-01T00:06:45;23.08;;;12.10;;
49860;SDS011;35761;48.826;9.238;2023-03-01T00:09:14;19.95;;;12.13;;
49860;SDS011;35761;48.826;9.238;2023-03-01T00:11:45;21.88;;;12.05;;
49860;SDS011;35761;48.826;9.238;2023-03-01T00:14:14;21.15;;;12.57;;
49860;SDS011;35761;48.826;9.238;2023-03-01T00:16:44;22.65;;;12.60;;
49860;SDS011;35761;48.826;9.238;2023-03-01T00:19:14;18.98;;;11.48;;
49860;SDS011;35761;48.826;9.238;2023-03-01T00:21:48;21.33;;;11.52;;
49860;SDS011;35761;48.826;9.238;2023-03-01T00:24:17;23.85;;;12.27;;
49860;SDS011;35761;48.826;9.238;2023-03-01T00:26:47;31.10;;;12.63;;
49860;SDS011;35761;48.826;9.238;2023-03-01T00:29:16;23.48;;;11.57;;
49860;SDS011;35761;48.826;9.238;2023-03-01T00:31:44;23.40;;;11.60;;
49860;SDS011;35761;48.826;9.238;2023-03-01T00:34:13;23.88;;;12.32;;
49860;SDS011;35761;48.826;9.238;2023-03-01T00:36:42;21.33;;;11.70;;
49860;SDS011;35761;48.826;9.238;2023-03-01T00:39:12;19.42;;;11.60;;
49860;SDS011;35761;48.826;9.238;2023-03-01T00:41:42;19.52;;;11.15;;
49860;SDS011;35761;48.826;9.238;2023-03-01T00:44:12;20.38;;;11.27;;
49860;SDS011;35761;48.826;9.238;2023-03-01T00:46:41;19.83;;;11.68;;
49860;SDS011;35761;48.826;9.238;2023-03-01T00:49:09;20.08;;;11.60;;
49860;SDS011;35761;48.826;9.238;2023-03-01T00:51:38;22.10;;;12.60;;
49860;SDS011;35761;48.826;9.238;2023-03-01T00:54:08;23.45;;;11.93;;
49860;SDS011;35761;48.826;9.238;2023-03-01T00:56:37;18.63;;;11.38;;
49860;SDS011;35761;48.826;9.238;2023-03-01T00:59:05;22.20;;;12.50;;
49860;SDS011;35761;48.826;9.238;2023-03-01T01:01:35;20.75;;;11.75;;
49860;SDS011;35761;48.826;9.238;2023-03-01T01:04:05;23.35;;;11.95;;
49860;SDS011;35761;48.826;9.238;2023-03-01T01:06:37;23.13;;;11.98;;
49860;SDS011;35761;48.826;9.238;2023-03-01T01:09:09;23.20;;;12.52;;
49860;SDS011;35761;48.826;9.238;2023-03-01T01:11:43;23.15;;;12.02;;
49860;SDS011;35761;48.826;9.238;2023-03-01T01:14:13;21.45;;;12.15;;
49860;SDS011;35761;48.826;9.238;2023-03-01T01:16:44;22.58;;;12.40;;
49860;SDS011;35761;48.826;9.238;2023-03-01T01:19:13;23.67;;;11.65;;
49860;SDS011;35761;48.826;9.238;2023-03-01T01:21:42;20.05;;;11.15;;
49860;SDS011;35761;48.826;9.238;2023-03-01T01:24:11;20.45;;;11.73;;
49860;SDS011;35761;48.826;9.238;2023-03-01T01:26:40;20.85;;;11.93;;
49860;SDS011;35761;48.826;9.238;2023-03-01T01:29:09;22.08;;;12.60;;
49860;SDS011;35761;48.826;9.238;2023-03-01T01:31:38;21.33;;;11.93;;
49860;SDS011;35761;48.826;9.238;2023-03-01T01:34:13;20.15;;;12.02;;
49860;SDS011;35761;48.826;9.238;2023-03-01T01:36:43;18.98;;;11.80;;
49860;SDS011;35761;48.826;9.238;2023-03-01T01:39:15;24.60;;;12.70;;
49860;SDS011;35761;48.826;9.238;2023-03-01T01:41:43;21.88;;;13.05;;
49860;SDS011;35761;48.826;9.238;2023-03-01T01:44:14;25.20;;;11.90;;
49860;SDS011;35761;48.826;9.238;2023-03-01T01:46:46;25.70;;;12.73;;
49860;SDS011;35761;48.826;9.238;2023-03-01T01:49:18;21.35;;;11.65;;
49860;SDS011;35761;48.826;9.238;2023-03-01T01:51:52;21.73;;;12.33;;
49860;SDS011;35761;48.826;9.238;2023-03-01T01:54:26;24.73;;;12.98;;
49860;SDS011;35761;48.826;9.238;2023-03-01T01:56:58;26.13;;;14.35;;
49860;SDS011;35761;48.826;9.238;2023-03-01T01:59:28;25.92;;;13.70;;
49860;SDS011;35761;48.826;9.238;2023-03-01T02:02:01;21.63;;;12.60;;
49860;SDS011;35761;48.826;9.238;2023-03-01T02:04:31;22.17;;;12.75;;
49860;SDS011;35761;48.826;9.238;2023-03-01T02:07:01;22.60;;;12.63;;
49860;SDS011;35761;48.826;9.238;2023-03-01T02:09:33;21.90;;;12.27;;
49860;SDS011;35761;48.826;9.238;2023-03-01T02:12:01;21.80;;;12.23;;
49860;SDS011;35761;48.826;9.238;2023-03-01T02:14:31;20.95;;;12.18;;
49860;SDS011;35761;48.826;9.238;2023-03-01T02:17:01;21.83;;;13.18;;
49860;SDS011;35761;48.826;9.238;2023-03-01T02:19:37;21.50;;;12.57;;
49860;SDS011;35761;48.826;9.238;2023-03-01T02:22:14;23.83;;;13.45;;
49860;SDS011;35761;48.826;9.238;2023-03-01T02:24:49;24.08;;;13.05;;
49860;SDS011;35761;48.826;9.238;2023-03-01T02:27:28;22.83;;;13.10;;
49860;SDS011;35761;48.826;9.238;2023-03-01T02:30:02;24.02;;;12.00;;
49860;SDS011;35761;48.826;9.238;2023-03-01T02:32:33;24.38;;;13.88;;
49860;SDS011;35761;48.826;9.238;2023-03-01T02:35:02;24.25;;;13.40;;
49860;SDS011;35761;48.826;9.238;2023-03-01T02:37:33;22.30;;;13.40;;
49860;SDS011;35761;48.826;9.238;2023-03-01T02:40:05;28.70;;;14.65;;
49860;SDS011;35761;48.826;9.238;2023-03-01T02:42:40;23.58;;;13.43;;
49860;SDS011;35761;48.826;9.238;2023-03-01T02:45:14;23.55;;;12.90;;
49860;SDS011;35761;48.826;9.238;2023-03-01T02:47:44;24.73;;;14.77;;
49860;SDS011;35761;48.826;9.238;2023-03-01T02:50:15;24.55;;;14.25;;
49860;SDS011;35761;48.826;9.238;2023-03-01T02:52:53;24.05;;;13.15;;
49860;SDS011;35761;48.826;9.238;2023-03-01T02:55:28;24.63;;;14.40;;
49860;SDS011;35761;48.826;9.238;2023-03-01T02:57:58;25.77;;;14.40;;
49860;SDS011;35761;48.826;9.238;2023-03-01T03:00:34;26.77;;;14.65;;
49860;SDS011;35761;48.826;9.238;2023-03-01T03:03:06;27.90;;;14.25;;
49860;SDS011;35761;48.826;9.238;2023-03-01T03:05:35;27.08;;;15.05;;
49860;SDS011;35761;48.826;9.238;2023-03-01T03:08:04;25.85;;;14.93;;
49860;SDS011;35761;48.826;9.238;2023-03-01T03:10:36;23.40;;;14.10;;
49860;SDS011;35761;48.826;9.238;2023-03-01T03:13:07;27.92;;;14.88;;
49860;SDS011;35761;48.826;9.238;2023-03-01T03:15:38;25.25;;;14.82;;
49860;SDS011;35761;48.826;9.238;2023-03-01T03:18:08;24.02;;;14.20;;
49860;SDS011;35761;48.826;9.238;2023-03-01T03:20:38;26.63;;;14.25;;
49860;SDS011;35761;48.826;9.238;2023-03-01T03:23:08;24.80;;;14.50;;
49860;SDS011;35761;48.826;9.238;2023-03-01T03:25:37;25.17;;;14.13;;
49860;SDS011;35761;48.826;9.238;2023-03-01T03:28:06;25.65;;;13.32;;
49860;SDS011;35761;48.826;9.238;2023-03-01T03:30:37;24.17;;;14.35;;
49860;SDS011;35761;48.826;9.238;2023-03-01T03:33:08;25.30;;;15.07;;
49860;SDS011;35761;48.826;9.238;2023-03-01T03:35:41;26.20;;;15.38;;
49860;SDS011;35761;48.826;9.238;2023-03-01T03:38:12;25.42;;;14.70;;
49860;SDS011;35761;48.826;9.238;2023-03-01T03:40:44;27.63;;;15.60;;
49860;SDS011;35761;48.826;9.238;2023-03-01T03:43:15;22.90;;;14.70;;
49860;SDS011;35761;48.826;9.238;2023-03-01T03:45:47;27.63;;;14.48;;
49860;SDS011;35761;48.826;9.238;2023-03-01T03:48:16;28.90;;;15.35;;
49860;SDS011;35761;48.826;9.238;2023-03-01T03:50:47;24.95;;;14.77;;
49860;SDS011;35761;48.826;9.238;2023-03-01T03:53:17;25.02;;;14.27;;
49860;SDS011;35761;48.826;9.238;2023-03-01T03:55:46;28.10;;;15.20;;
49860;SDS011;35761;48.826;9.238;2023-03-01T03:58:18;26.52;;;15.18;;
49860;SDS011;35761;48.826;9.238;2023-03-01T04:00:50;24.15;;;14.68;;
49860;SDS011;35761;48.826;9.238;2023-03-01T04:03:25;22.05;;;13.80;;
49860;SDS011;35761;48.826;9.238;2023-03-01T04:05:56;26.80;;;15.80;;
49860;SDS011;35761;48.826;9.238;2023-03-01T04:08:25;31.33;;;15.00;;
49860;SDS011;35761;48.826;9.238;2023-03-01T04:10:57;24.95;;;14.63;;
49860;SDS011;35761;48.826;9.238;2023-03-01T04:13:47;28.92;;;15.27;;
49860;SDS011;35761;48.826;9.238;2023-03-01T04:16:18;29.15;;;14.98;;
49860;SDS011;35761;48.826;9.238;2023-03-01T04:18:46;24.77;;;14.60;;
49860;SDS011;35761;48.826;9.238;2023-03-01T04:21:15;26.48;;;14.85;;
49860;SDS011;35761;48.826;9.238;2023-03-01T04:23:46;25.10;;;15.35;;
49860;SDS011;35761;48.826;9.238;2023-03-01T04:26:18;25.42;;;14.77;;
49860;SDS011;35761;48.826;9.238;2023-03-01T04:28:50;26.10;;;15.18;;
49860;SDS011;35761;48.826;9.238;2023-03-01T04:31:20;25.58;;;15.20;;
49860;SDS011;35761;48.826;9.238;2023-03-01T04:33:50;25.50;;;14.73;;
49860;SDS011;35761;48.826;9.238;2023-03-01T04:36:20;22.33;;;14.48;;
49860;SDS011;35761;48.826;9.238;2023-03-01T04:38:50;26.17;;;15.52;;
49860;SDS011;35761;48.826;9.238;2023-03-01T04:41:20;24.85;;;13.77;;
49860;SDS011;35761;48.826;9.238;2023-03-01T04:43:50;25.05;;;15.15;;
49860;SDS011;35761;48.826;9.238;2023-03-01T04:46:20;29.20;;;15.07;;
49860;SDS011;35761;48.826;9.238;2023-03-01T04:48:49;28.33;;;15.65;;
49860;SDS011;35761;48.826;9.238;2023-03-01T04:51:18;26.33;;;15.32;;
49860;SDS011;35761;48.826;9.238;2023-03-01T04:53:46;27.45;;;16.40;;
49860;SDS011;35761;48.826;9.238;2023-03-01T04:56:15;26.23;;;16.27;;
49860;SDS011;35761;48.826;9.238;2023-03-01T04:58:45;25.60;;;15.50;;
49860;SDS011;35761;48.826;9.238;2023-03-01T05:01:14;27.65;;;16.98;;
49860;SDS011;35761;48.826;9.238;2023-03-01T05:03:46;26.45;;;14.38;;
49860;SDS011;35761;48.826;9.238;2023-03-01T05:06:16;24.23;;;15.95;;
49860;SDS011;35761;48.826;9.238;2023-03-01T05:08:45;26.23;;;15.20;;
49860;SDS011;35761;48.826;9.238;2023-03-01T05:11:13;24.10;;;14.30;;
49860;SDS011;35761;48.826;9.238;2023-03-01T05:13:42;34.80;;;15.23;;
49860;SDS011;35761;48.826;9.238;2023-03-01T05:16:10;26.73;;;15.23;;
49860;SDS011;35761;48.826;9.238;2023-03-01T05:18:40;30.85;;;16.27;;
49860;SDS011;35761;48.826;9.238;2023-03-01T05:21:11;24.50;;;14.95;;
49860;SDS011;35761;48.826;9.238;2023-03-01T05:23:42;22.67;;;14.25;;
49860;SDS011;35761;48.826;9.238;2023-03-01T05:26:13;26.35;;;15.40;;
49860;SDS011;35761;48.826;9.238;2023-03-01T05:28:54;29.23;;;15.05;;
49860;SDS011;35761;48.826;9.238;2023-03-01T05:31:25;24.95;;;15.73;;
49860;SDS011;35761;48.826;9.238;2023-03-01T05:33:54;25.13;;;14.15;;
49860;SDS011;35761;48.826;9.238;2023-03-01T05:36:24;24.38;;;13.98;;
49860;SDS011;35761;48.826;9.238;2023-03-01T05:38:53;27.73;;;15.48;;
49860;SDS011;35761;48.826;9.238;2023-03-01T05:41:22;24.58;;;15.32;;
49860;SDS011;35761;48.826;9.238;2023-03-01T05:43:50;30.92;;;15.57;;
49860;SDS011;35761;48.826;9.238;2023-03-01T05:46:19;28.65;;;15.20;;
49860;SDS011;35761;48.826;9.238;2023-03-01T05:48:51;26.00;;;14.88;;
49860;SDS011;35761;48.826;9.238;2023-03-01T05:51:19;28.58;;;16.05;;
49860;SDS011;35761;48.826;9.238;2023-03-01T05:53:49;27.45;;;15.70;;
49860;SDS011;35761;48.826;9.238;2023-03-01T05:56:18;27.00;;;15.45;;
49860;SDS011;35761;48.826;9.238;2023-03-01T05:58:48;26.98;;;15.85;;
49860;SDS011;35761;48.826;9.238;2023-03-01T06:01:17;26.00;;;14.77;;
49860;SDS011;35761;48.826;9.238;2023-03-01T06:03:46;23.02;;;14.85;;
49860;SDS011;35761;48.826;9.238;2023-03-01T06:06:14;23.23;;;14.57;;
49860;SDS011;35761;48.826;9.238;2023-03-01T06:08:43;26.25;;;15.02;;
49860;SDS011;35761;48.826;9.238;2023-03-01T06:11:13;30.25;;;16.20;;
49860;SDS011;35761;48.826;9.238;2023-03-01T06:13:42;23.80;;;14.77;;
49860;SDS011;35761;48.826;9.238;2023-03-01T06:16:11;25.73;;;14.85;;
49860;SDS011;35761;48.826;9.238;2023-03-01T06:18:42;28.98;;;17.25;;
49860;SDS011;35761;48.826;9.238;2023-03-01T06:21:11;27.45;;;15.93;;
49860;SDS011;35761;48.826;9.238;2023-03-01T06:23:40;29.38;;;16.48;;
49860;SDS011;35761;48.826;9.238;2023-03-01T06:26:08;28.85;;;16.10;;
49860;SDS011;35761;48.826;9.238;2023-03-01T06:28:39;30.58;;;15.95;;
49860;SDS011;35761;48.826;9.238;2023-03-01T06:31:08;29.30;;;16.42;;
49860;SDS011;35761;48.826;9.238;2023-03-01T06:33:36;28.10;;;15.73;;
49860;SDS011;35761;48.826;9.238;2023-03-01T06:36:08;35.33;;;16.88;;
49860;SDS011;35761;48.826;9.238;2023-03-01T06:38:36;32.33;;;15.93;;
49860;SDS011;35761;48.826;9.238;2023-03-01T06:41:07;25.35;;;15.13;;
49860;SDS011;35761;48.826;9.238;2023-03-01T06:43:36;27.70;;;15.88;;
49860;SDS011;35761;48.826;9.238;2023-03-01T06:46:06;27.27;;;16.13;;
49860;SDS011;35761;48.826;9.238;2023-03-01T06:48:35;29.38;;;16.48;;
49860;SDS011;35761;48.826;9.238;2023-03-01T06:51:04;35.35;;;15.60;;
49860;SDS011;35761;48.826;9.238;2023-03-01T06:53:32;33.25;;;17.05;;
49860;SDS011;35761;48.826;9.238;2023-03-01T06:56:02;28.55;;;15.48;;
49860;SDS011;35761;48.826;9.238;2023-03-01T06:58:31;31.25;;;18.48;;
49860;SDS011;35761;48.826;9.238;2023-03-01T07:01:02;54.30;;;37.97;;
49860;SDS011;35761;48.826;9.238;2023-03-01T07:03:33;44.15;;;20.25;;
49860;SDS011;35761;48.826;9.238;2023-03-01T07:06:02;26.77;;;16.63;;
49860;SDS011;35761;48.826;9.238;2023-03-01T07:08:31;29.35;;;16.60;;
49860;SDS011;35761;48.826;9.238;2023-03-01T07:11:00;25.70;;;16.25;;
49860;SDS011;35761;48.826;9.238;2023-03-01T07:13:30;30.00;;;16.25;;
49860;SDS011;35761;48.826;9.238;2023-03-01T07:15:58;28.75;;;15.85;;
49860;SDS011;35761;48.826;9.238;2023-03-01T07:18:28;28.63;;;17.08;;
49860;SDS011;35761;48.826;9.238;2023-03-01T07:20:57;29.38;;;17.35;;
49860;SDS011;35761;48.826;9.238;2023-03-01T07:23:26;25.55;;;15.32;;
49860;SDS011;35761;48.826;9.238;2023-03-01T07:25:55;28.25;;;16.67;;
49860;SDS011;35761;48.826;9.238;2023-03-01T07:28:23;26.15;;;16.30;;
49860;SDS011;35761;48.826;9.238;2023-03-01T07:30:52;30.17;;;16.80;;
49860;SDS011;35761;48.826;9.238;2023-03-01T07:33:23;30.33;;;16.98;;
49860;SDS011;35761;48.826;9.238;2023-03-01T07:35:55;29.67;;;16.92;;
49860;SDS011;35761;48.826;9.238;2023-03-01T07:38:25;31.17;;;16.73;;
49860;SDS011;35761;48.826;9.238;2023-03-01T07:40:57;29.40;;;17.45;;
49860;SDS011;35761;48.826;9.238;2023-03-01T07:43:26;26.13;;;16.52;;
49860;SDS011;35761;48.826;9.238;2023-03-01T07:45:57;35.13;;;16.33;;
49860;SDS011;35761;48.826;9.238;2023-03-01T07:48:28;32.08;;;17.17;;
49860;SDS011;35761;48.826;9.238;2023-03-01T07:50:58;30.20;;;16.77;;
49860;SDS011;35761;48.826;9.238;2023-03-01T07:53:27;27.75;;;16.30;;
49860;SDS011;35761;48.826;9.238;2023-03-01T07:56:00;33.60;;;17.40;;
49860;SDS011;35761;48.826;9.238;2023-03-01T07:58:30;29.20;;;16.20;;
49860;SDS011;35761;48.826;9.238;2023-03-01T08:01:00;28.50;;;16.92;;
49860;SDS011;35761;48.826;9.238;2023-03-01T08:03:31;28.90;;;16.70;;
49860;SDS011;35761;48.826;9.238;2023-03-01T08:06:00;29.73;;;17.60;;
49860;SDS011;35761;48.826;9.238;2023-03-01T08:08:29;30.25;;;16.75;;
49860;SDS011;35761;48.826;9.238;2023-03-01T08:10:58;29.83;;;16.05;;
49860;SDS011;35761;48.826;9.238;2023-03-01T08:13:28;30.23;;;17.13;;
49860;SDS011;35761;48.826;9.238;2023-03-01T08:16:00;29.02;;;16.67;;
49860;SDS011;35761;48.826;9.238;2023-03-01T08:18:31;37.70;;;16.67;;
49860;SDS011;35761;48.826;9.238;2023-03-01T08:21:03;31.95;;;17.15;;
49860;SDS011;35761;48.826;9.238;2023-03-01T08:23:33;33.08;;;16.80;;
49860;SDS011;35761;48.826;9.238;2023-03-01T08:26:05;31.83;;;17.10;;
49860;SDS011;35761;48.826;9.238;2023-03-01T08:28:35;31.67;;;17.17;;
49860;SDS011;35761;48.826;9.238;2023-03-01T08:31:12;30.02;;;17.50;;
49860;SDS011;35761;48.826;9.238;2023-03-01T08:33:43;27.10;;;16.27;;
49860;SDS011;35761;48.826;9.238;2023-03-01T08:36:17;33.20;;;19.75;;
49860;SDS011;35761;48.826;9.238;2023-03-01T08:38:47;27.23;;;17.33;;
49860;SDS011;35761;48.826;9.238;2023-03-01T08:41:16;28.55;;;15.80;;
49860;SDS011;35761;48.826;9.238;2023-03-01T08:43:44;30.45;;;16.88;;
49860;SDS011;35761;48.826;9.238;2023-03-01T08:46:13;32.05;;;16.98;;
49860;SDS011;35761;48.826;9.238;2023-03-01T08:48:44;26.30;;;16.67;;
49860;SDS011;35761;48.826;9.238;2023-03-01T08:51:13;28.27;;;17.15;;
49860;SDS011;35761;48.826;9.238;2023-03-01T08:53:43;29.17;;;17.20;;
49860;SDS011;35761;48.826;9.238;2023-03-01T08:56:12;28.83;;;16.65;;
49860;SDS011;35761;48.826;9.238;2023-03-01T08:58:43;30.23;;;16.70;;
49860;SDS011;35761;48.826;9.238;2023-03-01T09:01:13;30.90;;;17.42;;
49860;SDS011;35761;48.826;9.238;2023-03-01T09:03:44;32.30;;;17.60;;
49860;SDS011;35761;48.826;9.238;2023-03-01T09:06:13;31.88;;;17.05;;
49860;SDS011;35761;48.826;9.238;2023-03-01T09:08:42;29.17;;;16.42;;
49860;SDS011;35761;48.826;9.238;2023-03-01T09:11:13;31.35;;;17.05;;
49860;SDS011;35761;48.826;9.238;2023-03-01T09:13:43;36.05;;;18.23;;
49860;SDS011;35761;48.826;9.238;2023-03-01T09:16:12;36.05;;;17.48;;
49860;SDS011;35761;48.826;9.238;2023-03-01T09:18:48;37.35;;;17.92;;
49860;SDS011;35761;48.826;9.238;2023-03-01T09:21:20;30.10;;;17.25;;
49860;SDS011;35761;48.826;9.238;2023-03-01T09:24:06;30.90;;;17.52;;
49860;SDS011;35761;48.826;9.238;2023-03-01T09:26:36;32.65;;;17.70;;
49860;SDS011;35761;48.826;9.238;2023-03-01T09:29:04;27.52;;;15.75;;
49860;SDS011;35761;48.826;9.238;2023-03-01T09:31:33;26.85;;;16.10;;
49860;SDS011;35761;48.826;9.238;2023-03-01T09:34:03;28.98;;;17.05;;
49860;SDS011;35761;48.826;9.238;2023-03-01T09:36:32;30.27;;;17.55;;
49860;SDS011;35761;48.826;9.238;2023-03-01T09:39:01;35.85;;;18.67;;
49860;SDS011;35761;48.826;9.238;2023-03-01T09:44:27;28.55;;;16.45;;
49860;SDS011;35761;48.826;9.238;2023-03-01T09:47:01;29.98;;;16.90;;
49860;SDS011;35761;48.826;9.238;2023-03-01T09:49:33;28.50;;;16.95;;
49860;SDS011;35761;48.826;9.238;2023-03-01T09:52:03;26.75;;;16.38;;
49860;SDS011;35761;48.826;9.238;2023-03-01T09:54:39;30.30;;;18.10;;
49860;SDS011;35761;48.826;9.238;2023-03-01T09:57:14;33.08;;;18.23;;
49860;SDS011;35761;48.826;9.238;2023-03-01T09:59:50;28.77;;;16.77;;
49860;SDS011;35761;48.826;9.238;2023-03-01T10:02:27;29.27;;;15.93;;
49860;SDS011;35761;48.826;9.238;2023-03-01T10:05:09;28.77;;;17.88;;
49860;SDS011;35761;48.826;9.238;2023-03-01T10:07:50;26.45;;;15.27;;
49860;SDS011;35761;48.826;9.238;2023-03-01T10:10:25;30.20;;;17.42;;
49860;SDS011;35761;48.826;9.238;2023-03-01T10:12:56;28.13;;;16.80;;
49860;SDS011;35761;48.826;9.238;2023-03-01T10:15:28;29.60;;;16.25;;
49860;SDS011;35761;48.826;9.238;2023-03-01T10:18:02;27.23;;;17.05;;
49860;SDS011;35761;48.826;9.238;2023-03-01T10:20:38;30.17;;;15.88;;
49860;SDS011;35761;48.826;9.238;2023-03-01T10:23:12;32.95;;;15.60;;
49860;SDS011;35761;48.826;9.238;2023-03-01T10:25:44;29.05;;;15.63;;
49860;SDS011;35761;48.826;9.238;2023-03-01T10:28:20;27.50;;;17.10;;
49860;SDS011;35761;48.826;9.238;2023-03-01T10:30:52;24.58;;;15.82;;
49860;SDS011;35761;48.826;9.238;2023-03-01T10:33:21;41.15;;;16.25;;
49860;SDS011;35761;48.826;9.238;2023-03-01T10:38:26;27.38;;;15.18;;
49860;SDS011;35761;48.826;9.238;2023-03-01T10:40:59;23.10;;;15.13;;
49860;SDS011;35761;48.826;9.238;2023-03-01T10:43:40;24.75;;;15.73;;
49860;SDS011;35761;48.826;9.238;2023-03-01T10:49:05;27.10;;;16.40;;
49860;SDS011;35761;48.826;9.238;2023-03-01T10:51:36;30.70;;;15.60;;
49860;SDS011;35761;48.826;9.238;2023-03-01T10:54:06;28.17;;;15.82;;
49860;SDS011;35761;48.826;9.238;2023-03-01T10:56:48;26.35;;;15.57;;
49860;SDS011;35761;48.826;9.238;2023-03-01T10:59:21;29.48;;;16.48;;
49860;SDS011;35761;48.826;9.238;2023-03-01T11:02:08;27.95;;;16.08;;
49860;SDS011;35761;48.826;9.238;2023-03-01T11:04:58;24.05;;;15.40;;
49860;SDS011;35761;48.826;9.238;2023-03-01T11:07:30;24.58;;;15.43;;
49860;SDS011;35761;48.826;9.238;2023-03-01T11:09:59;24.42;;;15.30;;
49860;SDS011;35761;48.826;9.238;2023-03-01T11:12:28;25.73;;;15.27;;
49860;SDS011;35761;48.826;9.238;2023-03-01T11:14:59;27.80;;;14.88;;
49860;SDS011;35761;48.826;9.238;2023-03-01T11:17:29;24.35;;;15.25;;
49860;SDS011;35761;48.826;9.238;2023-03-01T11:20:20;23.13;;;14.75;;
49860;SDS011;35761;48.826;9.238;2023-03-01T11:22:58;25.13;;;14.85;;
49860;SDS011;35761;48.826;9.238;2023-03-01T11:25:30;23.70;;;14.32;;
49860;SDS011;35761;48.826;9.238;2023-03-01T11:28:01;23.38;;;13.93;;
49860;SDS011;35761;48.826;9.238;2023-03-01T11:30:32;23.17;;;14.60;;
49860;SDS011;35761;48.826;9.238;2023-03-01T11:33:05;21.95;;;13.90;;
49860;SDS011;35761;48.826;9.238;2023-03-01T11:35:45;23.00;;;14.85;;
49860;SDS011;35761;48.826;9.238;2023-03-01T11:38:21;22.30;;;14.27;;
49860;SDS011;35761;48.826;9.238;2023-03-01T11:40:52;22.77;;;14.20;;
49860;SDS011;35761;48.826;9.238;2023-03-01T11:43:31;22.95;;;13.70;;
49860;SDS011;35761;48.826;9.238;2023-03-01T11:46:11;25.92;;;15.25;;
49860;SDS011;35761;48.826;9.238;2023-03-01T11:49:18;23.73;;;14.57;;
49860;SDS011;35761;48.826;9.238;2023-03-01T11:52:06;29.33;;;14.32;;
49860;SDS011;35761;48.826;9.238;2023-03-01T11:54:45;22.33;;;14.55;;
49860;SDS011;35761;48.826;9.238;2023-03-01T11:57:27;24.58;;;14.43;;
49860;SDS011;35761;48.826;9.238;2023-03-01T12:00:21;23.35;;;13.88;;
49860;SDS011;35761;48.826;9.238;2023-03-01T12:05:57;22.05;;;13.40;;
49860;SDS011;35761;48.826;9.238;2023-03-01T12:08:37;18.45;;;12.52;;
49860;SDS011;35761;48.826;9.238;2023-03-01T12:11:14;20.83;;;13.32;;
49860;SDS011;35761;48.826;9.238;2023-03-01T12:13:53;18.70;;;13.13;;
49860;SDS011;35761;48.826;9.238;2023-03-01T12:16:42;19.10;;;13.18;;
49860;SDS011;35761;48.826;9.238;2023-03-01T12:19:31;17.95;;;12.55;;
49860;SDS011;35761;48.826;9.238;2023-03-01T12:22:09;18.10;;;12.30;;
49860;SDS011;35761;48.826;9.238;2023-03-01T12:24:49;20.95;;;12.25;;
49860;SDS011;35761;48.826;9.238;2023-03-01T12:27:32;19.85;;;13.05;;
49860;SDS011;35761;48.826;9.238;2023-03-01T12:30:25;22.85;;;12.80;;
49860;SDS011;35761;48.826;9.238;2023-03-01T12:33:02;17.83;;;12.68;;
49860;SDS011;35761;48.826;9.238;2023-03-01T12:35:47;18.73;;;11.90;;
49860;SDS011;35761;48.826;9.238;2023-03-01T12:38:30;20.88;;;11.90;;
49860;SDS011;35761;48.826;9.238;2023-03-01T12:41:17;20.55;;;13.23;;
49860;SDS011;35761;48.826;9.238;2023-03-01T12:44:07;19.23;;;12.63;;
49860;SDS011;35761;48.826;9.238;2023-03-01T12:46:49;19.65;;;12.90;;
49860;SDS011;35761;48.826;9.238;2023-03-01T12:49:24;22.20;;;12.38;;
49860;SDS011;35761;48.826;9.238;2023-03-01T12:51:56;17.60;;;12.07;;
49860;SDS011;35761;48.826;9.238;2023-03-01T12:54:28;17.20;;;11.30;;
49860;SDS011;35761;48.826;9.238;2023-03-01T12:57:00;16.50;;;11.98;;
49860;SDS011;35761;48.826;9.238;2023-03-01T12:59:36;17.20;;;11.32;;
49860;SDS011;35761;48.826;9.238;2023-03-01T13:02:10;15.95;;;10.90;;
49860;SDS011;35761;48.826;9.238;2023-03-01T13:04:50;18.42;;;11.68;;
49860;SDS011;35761;48.826;9.238;2023-03-01T13:07:29;21.23;;;13.30;;
49860;SDS011;35761;48.826;9.238;2023-03-01T13:10:06;19.58;;;12.43;;
49860;SDS011;35761;48.826;9.238;2023-03-01T13:12:50;22.00;;;12.80;;
49860;SDS011;35761;48.826;9.238;2023-03-01T13:15:28;18.25;;;12.50;;
49860;SDS011;35761;48.826;9.238;2023-03-01T13:17:59;21.00;;;13.02;;
49860;SDS011;35761;48.826;9.238;2023-03-01T13:20:30;20.15;;;13.32;;
49860;SDS011;35761;48.826;9.238;2023-03-01T13:23:03;19.48;;;13.38;;
49860;SDS011;35761;48.826;9.238;2023-03-01T13:25:34;19.88;;;12.25;;
49860;SDS011;35761;48.826;9.238;2023-03-01T13:34:40;17.45;;;12.68;;
49860;SDS011;35761;48.826;9.238;2023-03-01T13:37:18;23.33;;;13.27;;
49860;SDS011;35761;48.826;9.238;2023-03-01T13:39:56;18.25;;;13.38;;
49860;SDS011;35761;48.826;9.238;2023-03-01T13:42:35;21.65;;;13.13;;
49860;SDS011;35761;48.826;9.238;2023-03-01T13:45:15;20.55;;;13.73;;
49860;SDS011;35761;48.826;9.238;2023-03-01T13:47:56;19.48;;;13.70;;
49860;SDS011;35761;48.826;9.238;2023-03-01T13:50:27;23.48;;;14.25;;
49860;SDS011;35761;48.826;9.238;2023-03-01T13:52:57;18.98;;;13.35;;
49860;SDS011;35761;48.826;9.238;2023-03-01T13:55:31;20.48;;;13.80;;
49860;SDS011;35761;48.826;9.238;2023-03-01T13:58:05;23.60;;;14.48;;
49860;SDS011;35761;48.826;9.238;2023-03-01T14:00:43;26.67;;;15.13;;
49860;SDS011;35761;48.826;9.238;2023-03-01T14:03:14;25.42;;;14.55;;
49860;SDS011;35761;48.826;9.238;2023-03-01T14:05:56;20.40;;;14.80;;
49860;SDS011;35761;48.826;9.238;2023-03-01T14:08:39;22.13;;;13.03;;
49860;SDS011;35761;48.826;9.238;2023-03-01T14:11:17;19.33;;;13.70;;
49860;SDS011;35761;48.826;9.238;2023-03-01T14:14:29;20.20;;;13.18;;
49860;SDS011;35761;48.826;9.238;2023-03-01T14:17:09;21.27;;;14.57;;
49860;SDS011;35761;48.826;9.238;2023-03-01T14:20:16;23.90;;;14.13;;
49860;SDS011;35761;48.826;9.238;2023-03-01T14:22:46;24.30;;;14.27;;
49860;SDS011;35761;48.826;9.238;2023-03-01T14:25:17;25.52;;;14.75;;
49860;SDS011;35761;48.826;9.238;2023-03-01T14:27:52;24.35;;;16.25;;
49860;SDS011;35761;48.826;9.238;2023-03-01T14:30:25;21.15;;;13.85;;
49860;SDS011;35761;48.826;9.238;2023-03-01T14:32:56;20.35;;;14.52;;
49860;SDS011;35761;48.826;9.238;2023-03-01T14:35:27;21.85;;;13.38;;
49860;SDS011;35761;48.826;9.238;2023-03-01T14:37:57;19.80;;;13.85;;
49860;SDS011;35761;48.826;9.238;2023-03-01T14:40:27;22.15;;;13.30;;
49860;SDS011;35761;48.826;9.238;2023-03-01T14:42:58;18.95;;;13.93;;
49860;SDS011;35761;48.826;9.238;2023-03-01T14:45:29;20.45;;;14.38;;
49860;SDS011;35761;48.826;9.238;2023-03-01T14:47:58;21.67;;;13.75;;
49860;SDS011;35761;48.826;9.238;2023-03-01T14:50:30;20.15;;;13.63;;
49860;SDS011;35761;48.826;9.238;2023-03-01T14:53:00;19.92;;;14.65;;
49860;SDS011;35761;48.826;9.238;2023-03-01T14:55:33;20.55;;;14.52;;
49860;SDS011;35761;48.826;9.238;2023-03-01T14:58:04;21.67;;;14.45;;
49860;SDS011;35761;48.826;9.238;2023-03-01T15:00:36;19.35;;;13.60;;
49860;SDS011;35761;48.826;9.238;2023-03-01T15:03:07;20.30;;;14.25;;
49860;SDS011;35761;48.826;9.238;2023-03-01T15:05:41;24.98;;;14.43;;
49860;SDS011;35761;48.826;9.238;2023-03-01T15:08:15;18.92;;;13.90;;
49860;SDS011;35761;48.826;9.238;2023-03-01T15:10:55;23.23;;;13.20;;